createdAt,value
2018-08-30T00:02:19.611Z,22.28
2018-08-30T00:07:12.860Z,22.41
2018-08-30T00:12:06.432Z,22.76
2018-08-30T00:16:59.720Z,23.53
2018-08-30T00:21:52.786Z,23.45
2018-08-30T00:26:46.520Z,23.25
2018-08-30T00:31:39.687Z,23.15
2018-08-30T00:36:33.028Z,22.84
2018-08-30T00:41:26.293Z,22.82
2018-08-30T00:46:19.435Z,23.18
2018-08-30T00:51:12.571Z,23.36
2018-08-30T00:56:05.982Z,23.69
2018-08-30T01:00:59.429Z,23.91
2018-08-30T01:05:52.568Z,23.98
2018-08-30T01:10:45.750Z,23.54
2018-08-30T01:15:39.013Z,23.40
2018-08-30T01:20:32.180Z,23.45
2018-08-30T01:25:25.559Z,23.37
2018-08-30T01:30:18.590Z,23.30
2018-08-30T01:35:11.775Z,23.01
2018-08-30T01:40:05.106Z,23.19
2018-08-30T01:44:58.273Z,23.52
2018-08-30T01:49:51.393Z,23.58
2018-08-30T01:54:45.379Z,23.02
2018-08-30T01:59:39.019Z,22.75
2018-08-30T02:04:32.058Z,23.48
2018-08-30T02:09:25.305Z,23.85
2018-08-30T02:14:18.345Z,24.18
2018-08-30T02:19:12.274Z,24.49
2018-08-30T02:24:05.422Z,24.59
2018-08-30T02:28:59.082Z,24.48
2018-08-30T02:33:52.431Z,24.33
2018-08-30T02:38:45.540Z,24.27
2018-08-30T02:43:39.633Z,23.87
2018-08-30T02:48:32.801Z,23.88
2018-08-30T02:53:25.932Z,23.71
2018-08-30T02:58:19.507Z,23.22
2018-08-30T03:03:13.086Z,23.01
2018-08-30T03:08:06.355Z,21.81
2018-08-30T03:12:59.868Z,21.35
2018-08-30T03:17:53.018Z,21.41
2018-08-30T03:22:46.886Z,21.37
2018-08-30T03:27:40.453Z,21.74
2018-08-30T03:32:34.677Z,21.76
2018-08-30T03:37:28.081Z,21.70
2018-08-30T03:42:21.811Z,21.37
2018-08-30T03:47:16.214Z,21.38
2018-08-30T03:52:09.924Z,21.49
2018-08-30T03:57:03.319Z,21.30
2018-08-30T04:02:01.958Z,21.04
2018-08-30T04:06:56.574Z,21.04
2018-08-30T04:11:50.439Z,21.06
2018-08-30T04:16:44.128Z,21.05
2018-08-30T04:21:39.657Z,20.94
2018-08-30T04:26:33.694Z,21.04
2018-08-30T04:31:29.808Z,21.25
2018-08-30T04:36:23.176Z,21.31
2018-08-30T04:41:16.890Z,21.64
2018-08-30T04:46:10.012Z,21.76
2018-08-30T04:51:03.192Z,21.93
2018-08-30T04:55:56.756Z,21.95
2018-08-30T05:00:50.551Z,22.14
2018-08-30T05:05:44.009Z,22.41
2018-08-30T05:10:37.527Z,22.58
2018-08-30T05:15:32.239Z,22.69
2018-08-30T05:20:27.443Z,22.89
2018-08-30T05:25:21.904Z,23.17
2018-08-30T05:30:15.873Z,23.65
2018-08-30T05:35:09.606Z,23.95
2018-08-30T05:40:05.945Z,23.99
2018-08-30T05:45:04.785Z,24.07
2018-08-30T05:50:00.899Z,24.10
2018-08-30T05:54:56.119Z,24.23
2018-08-30T05:59:49.744Z,24.33
2018-08-30T06:04:43.873Z,24.54
2018-08-30T06:09:39.259Z,24.58
2018-08-30T06:14:35.080Z,24.61
2018-08-30T06:19:28.286Z,24.73
2018-08-30T06:24:22.028Z,24.82
2018-08-30T06:29:15.273Z,25.02
2018-08-30T06:34:14.807Z,25.23
2018-08-30T06:39:18.499Z,25.23
2018-08-30T06:44:13.816Z,25.36
2018-08-30T06:49:08.909Z,25.51
2018-08-30T06:54:04.006Z,25.68
2018-08-30T06:58:59.663Z,25.86
2018-08-30T07:03:55.046Z,25.87
2018-08-30T07:08:50.620Z,25.88
2018-08-30T07:13:44.750Z,25.90
2018-08-30T07:18:40.220Z,26.16
2018-08-30T07:23:33.409Z,26.35
2018-08-30T07:28:29.786Z,26.36
2018-08-30T07:33:24.141Z,26.62
2018-08-30T07:38:25.738Z,27.00
2018-08-30T07:43:20.406Z,26.87
2018-08-30T07:48:18.434Z,27.04
2018-08-30T07:53:21.903Z,27.23
2018-08-30T07:58:16.401Z,27.28
2018-08-30T08:03:10.666Z,27.48
2018-08-30T08:08:03.953Z,27.50
2018-08-30T08:12:57.969Z,27.49
2018-08-30T08:17:55.344Z,27.74
2018-08-30T08:22:49.152Z,27.72
2018-08-30T08:27:43.401Z,27.92
2018-08-30T08:32:37.320Z,28.05
2018-08-30T08:37:31.469Z,28.03
2018-08-30T08:42:24.973Z,28.24
2018-08-30T08:47:20.270Z,28.17
2018-08-30T08:52:15.043Z,28.17
2018-08-30T08:57:08.200Z,28.27
2018-08-30T09:02:02.597Z,28.36
2018-08-30T09:07:00.920Z,28.32
2018-08-30T09:11:54.910Z,28.49
2018-08-30T09:16:48.286Z,28.34
2018-08-30T09:21:44.091Z,28.57
2018-08-30T09:26:37.900Z,28.48
2018-08-30T09:31:32.023Z,28.70
2018-08-30T09:36:25.497Z,28.80
2018-08-30T09:41:21.612Z,28.85
2018-08-30T09:46:15.967Z,28.96
2018-08-30T09:51:10.144Z,29.11
2018-08-30T09:56:03.746Z,29.10
2018-08-30T10:01:02.697Z,29.11
2018-08-30T10:05:56.676Z,28.97
2018-08-30T10:10:50.650Z,29.10
2018-08-30T10:15:46.065Z,29.05
2018-08-30T10:20:39.756Z,29.00
2018-08-30T10:25:33.220Z,29.08
2018-08-30T10:30:26.467Z,29.14
2018-08-30T10:35:22.499Z,29.38
2018-08-30T10:40:16.324Z,29.48
2018-08-30T10:45:10.208Z,29.30
2018-08-30T10:50:03.546Z,29.53
2018-08-30T10:54:56.819Z,29.67
2018-08-30T10:59:50.906Z,29.76
2018-08-30T11:04:44.167Z,29.82
2018-08-30T11:09:37.136Z,29.58
2018-08-30T11:14:30.431Z,29.84
2018-08-30T11:19:23.838Z,29.88
2018-08-30T11:24:19.238Z,30.19
2018-08-30T11:29:13.316Z,30.24
2018-08-30T11:34:06.772Z,30.06
2018-08-30T11:39:00.270Z,29.87
2018-08-30T11:43:53.706Z,29.79
2018-08-30T11:48:47.459Z,30.07
2018-08-30T11:53:40.778Z,30.16
2018-08-30T11:58:35.097Z,30.23
2018-08-30T12:03:28.271Z,30.22
2018-08-30T12:08:22.286Z,30.52
2018-08-30T12:13:15.492Z,30.66
2018-08-30T12:18:08.717Z,30.43
2018-08-30T12:23:01.811Z,30.42
2018-08-30T12:27:55.436Z,30.53
2018-08-30T12:32:48.584Z,30.51
2018-08-30T12:37:42.976Z,30.63
2018-08-30T12:42:36.144Z,30.92
2018-08-30T12:47:29.322Z,30.70
2018-08-30T12:52:22.637Z,30.81
2018-08-30T12:57:15.900Z,30.77
2018-08-30T13:02:09.726Z,30.74
2018-08-30T13:07:03.254Z,30.73
2018-08-30T13:11:58.693Z,30.63
2018-08-30T13:16:51.483Z,30.44
2018-08-30T13:21:44.705Z,30.19
2018-08-30T13:26:38.205Z,29.96
2018-08-30T13:31:39.263Z,29.81
2018-08-30T13:36:34.840Z,29.84
2018-08-30T13:41:28.537Z,30.26
2018-08-30T13:46:23.217Z,30.36
2018-08-30T13:51:17.574Z,30.28
2018-08-30T13:56:14.475Z,30.43
2018-08-30T14:01:08.402Z,30.43
2018-08-30T14:06:01.123Z,30.27
2018-08-30T14:10:54.227Z,30.36
2018-08-30T14:15:47.096Z,30.33
2018-08-30T14:20:40.412Z,30.23
2018-08-30T14:25:33.491Z,30.23
2018-08-30T14:30:26.494Z,30.21
2018-08-30T14:35:19.492Z,30.21
2018-08-30T14:40:12.674Z,30.17
2018-08-30T14:45:06.133Z,30.16
2018-08-30T14:49:59.295Z,30.15
2018-08-30T14:54:52.555Z,30.04
2018-08-30T14:59:45.698Z,30.35
2018-08-30T15:04:39.066Z,30.79
2018-08-30T15:09:32.165Z,30.95
2018-08-30T15:14:25.461Z,30.91
2018-08-30T15:19:18.718Z,31.01
2018-08-30T15:24:11.899Z,30.48
2018-08-30T15:29:05.097Z,30.23
2018-08-30T15:33:58.160Z,30.32
2018-08-30T15:38:51.240Z,30.45
2018-08-30T15:43:44.442Z,30.31
2018-08-30T15:48:37.650Z,30.14
2018-08-30T15:53:30.859Z,29.84
2018-08-30T15:58:25.158Z,29.56
2018-08-30T16:03:18.239Z,29.19
2018-08-30T16:08:11.258Z,29.07
2018-08-30T16:13:04.716Z,28.93
2018-08-30T16:17:57.829Z,28.86
2018-08-30T16:23:15.692Z,28.73
2018-08-30T16:28:08.891Z,28.61
2018-08-30T16:33:02.076Z,28.60
2018-08-30T16:37:55.876Z,28.49
2018-08-30T16:42:49.155Z,28.40
2018-08-30T16:47:42.224Z,28.21
2018-08-30T16:52:36.297Z,28.05
2018-08-30T16:57:32.779Z,28.02
2018-08-30T17:02:25.933Z,27.91
2018-08-30T17:07:19.264Z,27.81
2018-08-30T17:12:12.579Z,27.73
2018-08-30T17:17:05.764Z,27.69
2018-08-30T17:21:59.008Z,27.57
2018-08-30T17:26:52.236Z,27.48
2018-08-30T17:31:45.357Z,27.34
2018-08-30T17:36:38.581Z,27.44
2018-08-30T17:41:31.706Z,27.33
2018-08-30T17:46:24.779Z,27.08
2018-08-30T17:51:18.140Z,26.93
2018-08-30T17:56:12.284Z,26.73
2018-08-30T18:01:05.692Z,26.57
2018-08-30T18:05:58.796Z,26.40
2018-08-30T18:10:51.806Z,26.19
2018-08-30T18:15:45.451Z,25.93
2018-08-30T18:20:38.647Z,25.70
2018-08-30T18:25:32.030Z,25.49
2018-08-30T18:30:25.479Z,25.36
2018-08-30T18:35:18.559Z,25.27
2018-08-30T18:40:12.153Z,25.14
2018-08-30T18:45:05.431Z,24.88
2018-08-30T18:49:58.647Z,24.67
2018-08-30T18:54:51.793Z,24.39
2018-08-30T18:59:44.839Z,24.27
2018-08-30T19:04:38.302Z,24.19
2018-08-30T19:09:31.542Z,23.96
2018-08-30T19:14:24.659Z,23.83
2018-08-30T19:19:19.915Z,23.57
2018-08-30T19:24:18.637Z,23.61
2018-08-30T19:29:11.842Z,23.36
2018-08-30T19:34:06.199Z,23.33
2018-08-30T19:38:59.907Z,23.20
2018-08-30T19:43:53.757Z,23.10
2018-08-30T19:48:47.545Z,23.05
2018-08-30T19:53:42.029Z,22.98
2018-08-30T19:58:35.765Z,22.81
2018-08-30T20:03:28.827Z,22.54
2018-08-30T20:08:22.619Z,22.38
2018-08-30T20:13:16.124Z,22.41
2018-08-30T20:18:09.108Z,22.39
2018-08-30T20:23:02.342Z,22.34
2018-08-30T20:27:55.628Z,22.36
2018-08-30T20:32:48.875Z,22.28
2018-08-30T20:37:41.828Z,22.18
2018-08-30T20:42:35.446Z,22.19
2018-08-30T20:47:28.940Z,22.08
2018-08-30T20:52:22.244Z,21.91
2018-08-30T20:57:15.325Z,21.80
2018-08-30T21:02:09.336Z,21.81
2018-08-30T21:07:02.565Z,21.81
2018-08-30T21:11:56.510Z,21.69
2018-08-30T21:16:49.738Z,21.67
2018-08-30T21:21:42.869Z,21.61
2018-08-30T21:26:36.994Z,21.59
2018-08-30T21:31:30.127Z,21.50
2018-08-30T21:36:23.198Z,21.37
2018-08-30T21:41:16.467Z,21.39
2018-08-30T21:46:10.308Z,21.44
2018-08-30T21:51:04.315Z,21.40
2018-08-30T21:55:57.919Z,21.34
2018-08-30T22:00:51.570Z,21.30
2018-08-30T22:05:45.303Z,21.33
2018-08-30T22:10:38.382Z,21.16
2018-08-30T22:15:32.059Z,21.11
2018-08-30T22:20:25.231Z,21.15
2018-08-30T22:25:18.429Z,21.11
2018-08-30T22:30:11.675Z,21.02
2018-08-30T22:35:05.058Z,20.99
2018-08-30T22:39:59.267Z,21.02
2018-08-30T22:44:52.387Z,21.00
2018-08-30T22:49:46.056Z,20.85
2018-08-30T22:54:39.101Z,20.80
2018-08-30T22:59:32.268Z,20.67
2018-08-30T23:04:25.377Z,20.57
2018-08-30T23:09:19.866Z,20.56
2018-08-30T23:14:12.812Z,20.58
2018-08-30T23:19:06.069Z,20.64
2018-08-30T23:23:59.158Z,20.66
2018-08-30T23:28:52.593Z,20.66
2018-08-30T23:33:45.734Z,20.66
2018-08-30T23:38:38.861Z,20.67
2018-08-30T23:43:32.943Z,20.75
2018-08-30T23:48:26.062Z,20.67
2018-08-30T23:53:19.054Z,20.59
2018-08-30T23:58:23.191Z,20.67
